sensor_id;sensor_type;location;lat;lon;timestamp;temperature;humidity
75985;DHT22;65033;44.660;37.758;2022-11-30T00:00:55;27.80;32.75
75985;DHT22;65033;44.660;37.758;2022-11-30T00:01:59;27.80;32.77
75985;DHT22;65033;44.660;37.758;2022-11-30T00:03:02;27.80;32.74
75985;DHT22;65033;44.660;37.758;2022-11-30T00:04:08;27.79;32.75
75985;DHT22;65033;44.660;37.758;2022-11-30T00:05:12;27.80;32.73
75985;DHT22;65033;44.660;37.758;2022-11-30T00:06:16;27.80;32.70
75985;DHT22;65033;44.660;37.758;2022-11-30T00:07:24;27.79;32.70
75985;DHT22;65033;44.660;37.758;2022-11-30T00:08:28;27.79;32.71
75985;DHT22;65033;44.660;37.758;2022-11-30T00:09:31;27.80;32.68
75985;DHT22;65033;44.660;37.758;2022-11-30T00:10:37;27.80;32.64
75985;DHT22;65033;44.660;37.758;2022-11-30T00:11:40;27.80;32.64
75985;DHT22;65033;44.660;37.758;2022-11-30T00:12:44;27.81;32.66
75985;DHT22;65033;44.660;37.758;2022-11-30T00:13:47;27.80;32.64
75985;DHT22;65033;44.660;37.758;2022-11-30T00:14:50;27.80;32.64
75985;DHT22;65033;44.660;37.758;2022-11-30T00:15:59;27.79;32.67
75985;DHT22;65033;44.660;37.758;2022-11-30T00:17:02;27.78;32.67
75985;DHT22;65033;44.660;37.758;2022-11-30T00:18:06;27.80;32.67
75985;DHT22;65033;44.660;37.758;2022-11-30T00:19:10;27.78;32.65
75985;DHT22;65033;44.660;37.758;2022-11-30T00:20:14;27.79;32.69
75985;DHT22;65033;44.660;37.758;2022-11-30T00:21:18;27.79;32.69
75985;DHT22;65033;44.660;37.758;2022-11-30T00:22:21;27.79;32.69
75985;DHT22;65033;44.660;37.758;2022-11-30T00:23:25;27.78;32.73
75985;DHT22;65033;44.660;37.758;2022-11-30T00:24:28;27.79;32.62
75985;DHT22;65033;44.660;37.758;2022-11-30T00:25:31;27.76;32.59
75985;DHT22;65033;44.660;37.758;2022-11-30T00:26:35;27.78;32.60
75985;DHT22;65033;44.660;37.758;2022-11-30T00:27:38;27.79;32.60
75985;DHT22;65033;44.660;37.758;2022-11-30T00:28:42;27.78;32.61
75985;DHT22;65033;44.660;37.758;2022-11-30T00:29:47;27.76;32.61
75985;DHT22;65033;44.660;37.758;2022-11-30T00:30:56;27.76;32.61
75985;DHT22;65033;44.660;37.758;2022-11-30T00:32:00;27.78;32.60
75985;DHT22;65033;44.660;37.758;2022-11-30T00:33:03;27.78;32.55
75985;DHT22;65033;44.660;37.758;2022-11-30T00:34:07;27.76;32.53
75985;DHT22;65033;44.660;37.758;2022-11-30T00:35:12;27.76;32.54
75985;DHT22;65033;44.660;37.758;2022-11-30T00:36:16;27.76;32.53
75985;DHT22;65033;44.660;37.758;2022-11-30T00:37:20;27.76;32.53
75985;DHT22;65033;44.660;37.758;2022-11-30T00:38:24;27.75;32.55
75985;DHT22;65033;44.660;37.758;2022-11-30T00:39:28;27.74;32.57
75985;DHT22;65033;44.660;37.758;2022-11-30T00:40:34;27.75;32.58
75985;DHT22;65033;44.660;37.758;2022-11-30T00:41:37;27.75;32.57
75985;DHT22;65033;44.660;37.758;2022-11-30T00:42:41;27.75;32.57
75985;DHT22;65033;44.660;37.758;2022-11-30T00:43:44;27.75;32.50
75985;DHT22;65033;44.660;37.758;2022-11-30T00:44:48;27.76;32.53
75985;DHT22;65033;44.660;37.758;2022-11-30T00:45:51;27.76;32.51
75985;DHT22;65033;44.660;37.758;2022-11-30T00:46:55;27.75;32.51
75985;DHT22;65033;44.660;37.758;2022-11-30T00:47:58;27.74;32.50
75985;DHT22;65033;44.660;37.758;2022-11-30T00:49:01;27.73;32.47
75985;DHT22;65033;44.660;37.758;2022-11-30T00:50:06;27.74;32.47
75985;DHT22;65033;44.660;37.758;2022-11-30T00:51:11;27.73;32.48
75985;DHT22;65033;44.660;37.758;2022-11-30T00:52:15;27.74;32.45
75985;DHT22;65033;44.660;37.758;2022-11-30T00:53:18;27.75;32.43
75985;DHT22;65033;44.660;37.758;2022-11-30T00:54:22;27.73;32.39
75985;DHT22;65033;44.660;37.758;2022-11-30T00:55:25;27.74;32.38
75985;DHT22;65033;44.660;37.758;2022-11-30T00:56:30;27.75;32.38
75985;DHT22;65033;44.660;37.758;2022-11-30T00:57:34;27.75;32.31
75985;DHT22;65033;44.660;37.758;2022-11-30T00:58:37;27.74;32.32
75985;DHT22;65033;44.660;37.758;2022-11-30T00:59:40;27.73;32.32
75985;DHT22;65033;44.660;37.758;2022-11-30T01:00:44;27.74;32.39
75985;DHT22;65033;44.660;37.758;2022-11-30T01:01:48;27.75;32.39
75985;DHT22;65033;44.660;37.758;2022-11-30T01:02:52;27.74;32.38
75985;DHT22;65033;44.660;37.758;2022-11-30T01:03:56;27.74;32.36
75985;DHT22;65033;44.660;37.758;2022-11-30T01:05:00;27.73;32.40
75985;DHT22;65033;44.660;37.758;2022-11-30T01:06:05;27.73;32.35
75985;DHT22;65033;44.660;37.758;2022-11-30T01:07:10;27.72;32.38
75985;DHT22;65033;44.660;37.758;2022-11-30T01:08:14;27.73;32.35
75985;DHT22;65033;44.660;37.758;2022-11-30T01:09:17;27.73;32.37
75985;DHT22;65033;44.660;37.758;2022-11-30T01:10:21;27.73;32.34
75985;DHT22;65033;44.660;37.758;2022-11-30T01:11:28;27.73;32.35
75985;DHT22;65033;44.660;37.758;2022-11-30T01:12:31;27.72;32.35
75985;DHT22;65033;44.660;37.758;2022-11-30T01:13:34;27.71;32.31
75985;DHT22;65033;44.660;37.758;2022-11-30T01:14:38;27.72;32.30
75985;DHT22;65033;44.660;37.758;2022-11-30T01:15:43;27.72;32.28
75985;DHT22;65033;44.660;37.758;2022-11-30T01:16:46;27.72;32.24
75985;DHT22;65033;44.660;37.758;2022-11-30T01:17:52;27.70;32.25
75985;DHT22;65033;44.660;37.758;2022-11-30T01:18:55;27.70;32.28
75985;DHT22;65033;44.660;37.758;2022-11-30T01:19:59;27.70;32.31
75985;DHT22;65033;44.660;37.758;2022-11-30T01:21:05;27.70;32.33
75985;DHT22;65033;44.660;37.758;2022-11-30T01:22:10;27.71;32.34
75985;DHT22;65033;44.660;37.758;2022-11-30T01:23:14;27.70;32.23
75985;DHT22;65033;44.660;37.758;2022-11-30T01:24:17;27.70;32.27
75985;DHT22;65033;44.660;37.758;2022-11-30T01:25:20;27.70;32.26
75985;DHT22;65033;44.660;37.758;2022-11-30T01:26:24;27.71;32.28
75985;DHT22;65033;44.660;37.758;2022-11-30T01:27:27;27.71;32.29
75985;DHT22;65033;44.660;37.758;2022-11-30T01:28:31;27.70;32.24
75985;DHT22;65033;44.660;37.758;2022-11-30T01:29:34;27.70;32.27
75985;DHT22;65033;44.660;37.758;2022-11-30T01:30:37;27.71;32.28
75985;DHT22;65033;44.660;37.758;2022-11-30T01:31:41;27.70;32.25
75985;DHT22;65033;44.660;37.758;2022-11-30T01:32:44;27.70;32.23
75985;DHT22;65033;44.660;37.758;2022-11-30T01:33:49;27.69;32.25
75985;DHT22;65033;44.660;37.758;2022-11-30T01:34:53;27.69;32.26
75985;DHT22;65033;44.660;37.758;2022-11-30T01:36:00;27.70;32.22
75985;DHT22;65033;44.660;37.758;2022-11-30T01:37:03;27.69;32.27
75985;DHT22;65033;44.660;37.758;2022-11-30T01:38:08;27.69;32.24
75985;DHT22;65033;44.660;37.758;2022-11-30T01:39:11;27.69;32.21
75985;DHT22;65033;44.660;37.758;2022-11-30T01:40:15;27.69;32.32
75985;DHT22;65033;44.660;37.758;2022-11-30T01:41:22;27.70;32.34
75985;DHT22;65033;44.660;37.758;2022-11-30T01:42:25;27.68;32.26
75985;DHT22;65033;44.660;37.758;2022-11-30T01:43:40;27.69;32.25
75985;DHT22;65033;44.660;37.758;2022-11-30T01:44:50;27.70;32.18
75985;DHT22;65033;44.660;37.758;2022-11-30T01:45:53;27.70;32.23
75985;DHT22;65033;44.660;37.758;2022-11-30T01:47:00;27.70;32.22
75985;DHT22;65033;44.660;37.758;2022-11-30T01:48:06;27.69;32.19
75985;DHT22;65033;44.660;37.758;2022-11-30T01:49:14;27.68;32.17
75985;DHT22;65033;44.660;37.758;2022-11-30T01:50:25;27.69;32.15
75985;DHT22;65033;44.660;37.758;2022-11-30T01:51:33;27.69;32.18
75985;DHT22;65033;44.660;37.758;2022-11-30T01:52:39;27.69;32.20
75985;DHT22;65033;44.660;37.758;2022-11-30T01:53:46;27.69;32.17
75985;DHT22;65033;44.660;37.758;2022-11-30T01:54:52;27.69;32.15
75985;DHT22;65033;44.660;37.758;2022-11-30T01:55:57;27.69;32.19
75985;DHT22;65033;44.660;37.758;2022-11-30T01:57:04;27.69;32.12
75985;DHT22;65033;44.660;37.758;2022-11-30T01:58:11;27.69;32.18
75985;DHT22;65033;44.660;37.758;2022-11-30T01:59:16;27.67;32.12
75985;DHT22;65033;44.660;37.758;2022-11-30T02:00:23;27.67;32.14
75985;DHT22;65033;44.660;37.758;2022-11-30T02:01:26;27.68;32.12
75985;DHT22;65033;44.660;37.758;2022-11-30T02:02:39;27.67;32.06
75985;DHT22;65033;44.660;37.758;2022-11-30T02:03:50;27.67;32.08
75985;DHT22;65033;44.660;37.758;2022-11-30T02:04:56;27.67;32.12
75985;DHT22;65033;44.660;37.758;2022-11-30T02:05:59;27.67;32.11
75985;DHT22;65033;44.660;37.758;2022-11-30T02:07:05;27.67;32.08
75985;DHT22;65033;44.660;37.758;2022-11-30T02:08:09;27.67;32.12
75985;DHT22;65033;44.660;37.758;2022-11-30T02:09:15;27.68;32.04
75985;DHT22;65033;44.660;37.758;2022-11-30T02:10:24;27.67;32.04
75985;DHT22;65033;44.660;37.758;2022-11-30T02:11:28;27.67;32.12
75985;DHT22;65033;44.660;37.758;2022-11-30T02:12:38;27.66;32.01
75985;DHT22;65033;44.660;37.758;2022-11-30T02:13:58;27.68;32.07
75985;DHT22;65033;44.660;37.758;2022-11-30T02:15:07;27.66;32.05
75985;DHT22;65033;44.660;37.758;2022-11-30T02:16:19;27.66;32.05
75985;DHT22;65033;44.660;37.758;2022-11-30T02:17:30;27.67;31.97
75985;DHT22;65033;44.660;37.758;2022-11-30T02:18:44;27.65;32.02
75985;DHT22;65033;44.660;37.758;2022-11-30T02:21:30;27.65;32.03
75985;DHT22;65033;44.660;37.758;2022-11-30T02:22:47;27.65;32.04
75985;DHT22;65033;44.660;37.758;2022-11-30T02:24:31;27.66;32.03
75985;DHT22;65033;44.660;37.758;2022-11-30T02:25:46;27.65;32.04
75985;DHT22;65033;44.660;37.758;2022-11-30T02:27:18;27.66;32.10
75985;DHT22;65033;44.660;37.758;2022-11-30T02:28:58;27.65;32.01
75985;DHT22;65033;44.660;37.758;2022-11-30T02:30:07;27.65;32.00
75985;DHT22;65033;44.660;37.758;2022-11-30T02:31:15;27.66;32.05
75985;DHT22;65033;44.660;37.758;2022-11-30T02:32:20;27.65;32.10
75985;DHT22;65033;44.660;37.758;2022-11-30T02:33:28;27.64;31.99
75985;DHT22;65033;44.660;37.758;2022-11-30T02:34:35;27.63;32.00
75985;DHT22;65033;44.660;37.758;2022-11-30T02:35:41;27.61;32.00
75985;DHT22;65033;44.660;37.758;2022-11-30T02:36:47;27.64;31.96
75985;DHT22;65033;44.660;37.758;2022-11-30T02:37:52;27.61;32.05
75985;DHT22;65033;44.660;37.758;2022-11-30T02:38:57;27.63;32.09
75985;DHT22;65033;44.660;37.758;2022-11-30T02:40:00;27.64;32.06
75985;DHT22;65033;44.660;37.758;2022-11-30T02:41:04;27.63;32.17
75985;DHT22;65033;44.660;37.758;2022-11-30T02:42:10;27.64;32.15
75985;DHT22;65033;44.660;37.758;2022-11-30T02:43:15;27.64;32.03
75985;DHT22;65033;44.660;37.758;2022-11-30T02:44:21;27.61;32.06
75985;DHT22;65033;44.660;37.758;2022-11-30T02:45:42;27.63;32.00
75985;DHT22;65033;44.660;37.758;2022-11-30T02:46:55;27.60;31.98
75985;DHT22;65033;44.660;37.758;2022-11-30T02:48:07;27.61;32.17
75985;DHT22;65033;44.660;37.758;2022-11-30T02:49:15;27.61;32.10
75985;DHT22;65033;44.660;37.758;2022-11-30T02:50:22;27.61;32.15
75985;DHT22;65033;44.660;37.758;2022-11-30T02:51:29;27.60;32.16
75985;DHT22;65033;44.660;37.758;2022-11-30T02:52:34;27.61;32.17
75985;DHT22;65033;44.660;37.758;2022-11-30T02:53:37;27.61;32.14
75985;DHT22;65033;44.660;37.758;2022-11-30T02:54:41;27.61;32.22
75985;DHT22;65033;44.660;37.758;2022-11-30T02:55:45;27.63;32.22
75985;DHT22;65033;44.660;37.758;2022-11-30T02:56:48;27.63;32.12
75985;DHT22;65033;44.660;37.758;2022-11-30T02:57:51;27.63;32.12
75985;DHT22;65033;44.660;37.758;2022-11-30T02:58:55;27.61;32.06
75985;DHT22;65033;44.660;37.758;2022-11-30T03:00:02;27.61;31.99
75985;DHT22;65033;44.660;37.758;2022-11-30T03:01:07;27.61;32.04
75985;DHT22;65033;44.660;37.758;2022-11-30T03:02:10;27.61;32.08
75985;DHT22;65033;44.660;37.758;2022-11-30T03:03:14;27.61;32.02
75985;DHT22;65033;44.660;37.758;2022-11-30T03:04:17;27.61;32.04
75985;DHT22;65033;44.660;37.758;2022-11-30T03:05:20;27.61;32.05
75985;DHT22;65033;44.660;37.758;2022-11-30T03:06:23;27.60;32.02
75985;DHT22;65033;44.660;37.758;2022-11-30T03:07:27;27.61;31.93
75985;DHT22;65033;44.660;37.758;2022-11-30T03:08:30;27.63;31.92
75985;DHT22;65033;44.660;37.758;2022-11-30T03:09:33;27.60;32.06
75985;DHT22;65033;44.660;37.758;2022-11-30T03:10:37;27.60;32.02
75985;DHT22;65033;44.660;37.758;2022-11-30T03:11:40;27.61;32.01
75985;DHT22;65033;44.660;37.758;2022-11-30T03:12:43;27.63;31.99
75985;DHT22;65033;44.660;37.758;2022-11-30T03:13:47;27.61;32.02
75985;DHT22;65033;44.660;37.758;2022-11-30T03:14:51;27.63;32.01
75985;DHT22;65033;44.660;37.758;2022-11-30T03:15:55;27.61;31.97
75985;DHT22;65033;44.660;37.758;2022-11-30T03:16:59;27.61;31.91
75985;DHT22;65033;44.660;37.758;2022-11-30T03:18:03;27.61;31.91
75985;DHT22;65033;44.660;37.758;2022-11-30T03:19:06;27.63;31.90
75985;DHT22;65033;44.660;37.758;2022-11-30T03:20:10;27.61;31.95
75985;DHT22;65033;44.660;37.758;2022-11-30T03:21:13;27.61;31.89
75985;DHT22;65033;44.660;37.758;2022-11-30T03:22:16;27.63;31.86
75985;DHT22;65033;44.660;37.758;2022-11-30T03:23:20;27.64;31.80
75985;DHT22;65033;44.660;37.758;2022-11-30T03:24:23;27.61;31.90
75985;DHT22;65033;44.660;37.758;2022-11-30T03:25:27;27.63;31.96
75985;DHT22;65033;44.660;37.758;2022-11-30T03:26:30;27.61;32.00
75985;DHT22;65033;44.660;37.758;2022-11-30T03:27:33;27.63;31.96
75985;DHT22;65033;44.660;37.758;2022-11-30T03:28:37;27.63;31.99
75985;DHT22;65033;44.660;37.758;2022-11-30T03:29:40;27.61;31.96
75985;DHT22;65033;44.660;37.758;2022-11-30T03:30:47;27.61;31.89
75985;DHT22;65033;44.660;37.758;2022-11-30T03:31:52;27.61;31.83
75985;DHT22;65033;44.660;37.758;2022-11-30T03:32:56;27.60;31.82
75985;DHT22;65033;44.660;37.758;2022-11-30T03:33:59;27.63;31.86
75985;DHT22;65033;44.660;37.758;2022-11-30T03:35:03;27.61;31.84
75985;DHT22;65033;44.660;37.758;2022-11-30T03:36:08;27.61;31.78
75985;DHT22;65033;44.660;37.758;2022-11-30T03:37:12;27.60;31.80
75985;DHT22;65033;44.660;37.758;2022-11-30T03:38:15;27.61;31.83
75985;DHT22;65033;44.660;37.758;2022-11-30T03:39:18;27.61;31.80
75985;DHT22;65033;44.660;37.758;2022-11-30T03:40:22;27.60;31.85
75985;DHT22;65033;44.660;37.758;2022-11-30T03:41:25;27.63;31.80
75985;DHT22;65033;44.660;37.758;2022-11-30T03:42:28;27.61;31.83
75985;DHT22;65033;44.660;37.758;2022-11-30T03:43:32;27.61;31.80
75985;DHT22;65033;44.660;37.758;2022-11-30T03:44:35;27.60;31.67
75985;DHT22;65033;44.660;37.758;2022-11-30T03:45:39;27.60;31.60
75985;DHT22;65033;44.660;37.758;2022-11-30T03:46:42;27.61;31.40
75985;DHT22;65033;44.660;37.758;2022-11-30T03:47:47;27.60;31.43
75985;DHT22;65033;44.660;37.758;2022-11-30T03:48:50;27.61;31.62
75985;DHT22;65033;44.660;37.758;2022-11-30T03:49:54;27.63;31.55
75985;DHT22;65033;44.660;37.758;2022-11-30T03:50:57;27.61;31.59
75985;DHT22;65033;44.660;37.758;2022-11-30T03:52:01;27.63;31.62
75985;DHT22;65033;44.660;37.758;2022-11-30T03:53:04;27.63;31.58
75985;DHT22;65033;44.660;37.758;2022-11-30T03:54:07;27.63;31.57
75985;DHT22;65033;44.660;37.758;2022-11-30T03:55:11;27.61;31.57
75985;DHT22;65033;44.660;37.758;2022-11-30T03:56:14;27.61;31.67
75985;DHT22;65033;44.660;37.758;2022-11-30T03:57:18;27.61;31.63
75985;DHT22;65033;44.660;37.758;2022-11-30T03:58:22;27.60;31.64
75985;DHT22;65033;44.660;37.758;2022-11-30T03:59:26;27.61;31.70
75985;DHT22;65033;44.660;37.758;2022-11-30T04:00:30;27.61;31.70
75985;DHT22;65033;44.660;37.758;2022-11-30T04:01:34;27.60;31.74
75985;DHT22;65033;44.660;37.758;2022-11-30T04:02:38;27.60;31.74
75985;DHT22;65033;44.660;37.758;2022-11-30T04:03:46;27.60;31.78
75985;DHT22;65033;44.660;37.758;2022-11-30T04:04:49;27.60;31.83
75985;DHT22;65033;44.660;37.758;2022-11-30T04:05:53;27.61;31.88
75985;DHT22;65033;44.660;37.758;2022-11-30T04:06:56;27.61;31.93
75985;DHT22;65033;44.660;37.758;2022-11-30T04:07:59;27.64;31.96
75985;DHT22;65033;44.660;37.758;2022-11-30T04:09:03;27.63;32.02
75985;DHT22;65033;44.660;37.758;2022-11-30T04:10:07;27.63;32.05
75985;DHT22;65033;44.660;37.758;2022-11-30T04:11:10;27.63;32.02
75985;DHT22;65033;44.660;37.758;2022-11-30T04:12:14;27.64;32.06
75985;DHT22;65033;44.660;37.758;2022-11-30T04:13:17;27.64;31.99
75985;DHT22;65033;44.660;37.758;2022-11-30T04:14:20;27.61;32.00
75985;DHT22;65033;44.660;37.758;2022-11-30T04:15:24;27.61;32.05
75985;DHT22;65033;44.660;37.758;2022-11-30T04:16:27;27.64;32.08
75985;DHT22;65033;44.660;37.758;2022-11-30T04:17:30;27.63;32.11
75985;DHT22;65033;44.660;37.758;2022-11-30T04:18:35;27.63;32.12
75985;DHT22;65033;44.660;37.758;2022-11-30T04:19:39;27.61;32.11
75985;DHT22;65033;44.660;37.758;2022-11-30T04:20:43;27.61;32.09
75985;DHT22;65033;44.660;37.758;2022-11-30T04:21:46;27.61;32.10
75985;DHT22;65033;44.660;37.758;2022-11-30T04:22:49;27.61;32.15
75985;DHT22;65033;44.660;37.758;2022-11-30T04:23:53;27.60;32.12
75985;DHT22;65033;44.660;37.758;2022-11-30T04:24:56;27.63;32.15
75985;DHT22;65033;44.660;37.758;2022-11-30T04:26:01;27.61;32.18
75985;DHT22;65033;44.660;37.758;2022-11-30T04:27:05;27.60;32.16
75985;DHT22;65033;44.660;37.758;2022-11-30T04:28:08;27.61;32.18
75985;DHT22;65033;44.660;37.758;2022-11-30T04:29:12;27.60;32.16
75985;DHT22;65033;44.660;37.758;2022-11-30T04:30:15;27.61;32.15
75985;DHT22;65033;44.660;37.758;2022-11-30T04:31:19;27.60;32.22
75985;DHT22;65033;44.660;37.758;2022-11-30T04:32:22;27.63;32.23
75985;DHT22;65033;44.660;37.758;2022-11-30T04:33:26;27.61;32.20
75985;DHT22;65033;44.660;37.758;2022-11-30T04:34:31;27.64;32.25
75985;DHT22;65033;44.660;37.758;2022-11-30T04:35:38;27.64;32.34
75985;DHT22;65033;44.660;37.758;2022-11-30T04:36:42;27.61;32.35
75985;DHT22;65033;44.660;37.758;2022-11-30T04:37:45;27.63;32.31
75985;DHT22;65033;44.660;37.758;2022-11-30T04:38:49;27.64;32.41
75985;DHT22;65033;44.660;37.758;2022-11-30T04:39:52;27.63;32.41
75985;DHT22;65033;44.660;37.758;2022-11-30T04:40:56;27.65;32.47
75985;DHT22;65033;44.660;37.758;2022-11-30T04:42:00;27.64;32.47
75985;DHT22;65033;44.660;37.758;2022-11-30T04:43:03;27.64;32.52
75985;DHT22;65033;44.660;37.758;2022-11-30T04:44:06;27.63;32.59
75985;DHT22;65033;44.660;37.758;2022-11-30T04:45:10;27.65;32.62
75985;DHT22;65033;44.660;37.758;2022-11-30T04:46:14;27.61;32.62
75985;DHT22;65033;44.660;37.758;2022-11-30T04:47:17;27.65;32.72
75985;DHT22;65033;44.660;37.758;2022-11-30T04:48:24;27.65;32.86
75985;DHT22;65033;44.660;37.758;2022-11-30T04:49:27;27.66;32.86
75985;DHT22;65033;44.660;37.758;2022-11-30T04:50:31;27.64;33.07
75985;DHT22;65033;44.660;37.758;2022-11-30T04:51:37;27.65;33.38
75985;DHT22;65033;44.660;37.758;2022-11-30T04:52:40;27.65;33.12
75985;DHT22;65033;44.660;37.758;2022-11-30T04:53:43;27.64;33.28
75985;DHT22;65033;44.660;37.758;2022-11-30T04:54:47;27.64;33.15
75985;DHT22;65033;44.660;37.758;2022-11-30T04:55:50;27.65;33.15
75985;DHT22;65033;44.660;37.758;2022-11-30T04:56:53;27.65;33.22
75985;DHT22;65033;44.660;37.758;2022-11-30T04:57:57;27.65;33.40
75985;DHT22;65033;44.660;37.758;2022-11-30T04:59:01;27.64;33.44
75985;DHT22;65033;44.660;37.758;2022-11-30T05:00:06;27.65;33.39
75985;DHT22;65033;44.660;37.758;2022-11-30T05:01:09;27.63;33.11
75985;DHT22;65033;44.660;37.758;2022-11-30T05:02:13;27.64;33.09
75985;DHT22;65033;44.660;37.758;2022-11-30T05:03:17;27.63;32.99
75985;DHT22;65033;44.660;37.758;2022-11-30T05:04:20;27.64;32.85
75985;DHT22;65033;44.660;37.758;2022-11-30T05:05:24;27.64;32.82
75985;DHT22;65033;44.660;37.758;2022-11-30T05:06:27;27.64;32.83
75985;DHT22;65033;44.660;37.758;2022-11-30T05:07:32;27.63;32.88
75985;DHT22;65033;44.660;37.758;2022-11-30T05:08:35;27.63;32.96
75985;DHT22;65033;44.660;37.758;2022-11-30T05:09:39;27.61;33.00
75985;DHT22;65033;44.660;37.758;2022-11-30T05:10:42;27.63;32.98
75985;DHT22;65033;44.660;37.758;2022-11-30T05:11:48;27.61;32.99
75985;DHT22;65033;44.660;37.758;2022-11-30T05:12:54;27.63;32.99
75985;DHT22;65033;44.660;37.758;2022-11-30T05:13:58;27.63;32.99
75985;DHT22;65033;44.660;37.758;2022-11-30T05:15:02;27.63;33.02
75985;DHT22;65033;44.660;37.758;2022-11-30T05:16:09;27.60;32.98
75985;DHT22;65033;44.660;37.758;2022-11-30T05:17:12;27.60;33.00
75985;DHT22;65033;44.660;37.758;2022-11-30T05:18:50;27.61;33.00
75985;DHT22;65033;44.660;37.758;2022-11-30T05:20:11;27.63;33.04
75985;DHT22;65033;44.660;37.758;2022-11-30T05:21:41;27.61;32.91
75985;DHT22;65033;44.660;37.758;2022-11-30T05:22:49;27.61;32.93
75985;DHT22;65033;44.660;37.758;2022-11-30T05:23:52;27.61;32.96
75985;DHT22;65033;44.660;37.758;2022-11-30T05:24:56;27.63;32.98
75985;DHT22;65033;44.660;37.758;2022-11-30T05:26:01;27.63;33.06
75985;DHT22;65033;44.660;37.758;2022-11-30T05:27:04;27.63;33.09
75985;DHT22;65033;44.660;37.758;2022-11-30T05:28:11;27.65;33.07
75985;DHT22;65033;44.660;37.758;2022-11-30T05:29:14;27.66;33.14
75985;DHT22;65033;44.660;37.758;2022-11-30T05:30:17;27.66;33.26
75985;DHT22;65033;44.660;37.758;2022-11-30T05:31:21;27.68;33.35
75985;DHT22;65033;44.660;37.758;2022-11-30T05:32:24;27.68;33.37
75985;DHT22;65033;44.660;37.758;2022-11-30T05:33:28;27.70;33.41
75985;DHT22;65033;44.660;37.758;2022-11-30T05:34:31;27.72;33.34
75985;DHT22;65033;44.660;37.758;2022-11-30T05:35:43;27.71;33.40
75985;DHT22;65033;44.660;37.758;2022-11-30T05:36:46;27.72;33.46
75985;DHT22;65033;44.660;37.758;2022-11-30T05:37:51;27.74;33.54
75985;DHT22;65033;44.660;37.758;2022-11-30T05:38:54;27.75;33.57
75985;DHT22;65033;44.660;37.758;2022-11-30T05:39:57;27.76;33.54
75985;DHT22;65033;44.660;37.758;2022-11-30T05:41:01;27.80;33.52
75985;DHT22;65033;44.660;37.758;2022-11-30T05:42:04;27.81;33.52
75985;DHT22;65033;44.660;37.758;2022-11-30T05:43:08;27.83;33.47
75985;DHT22;65033;44.660;37.758;2022-11-30T05:44:11;27.85;33.51
75985;DHT22;65033;44.660;37.758;2022-11-30T05:45:15;27.85;33.46
75985;DHT22;65033;44.660;37.758;2022-11-30T05:46:18;27.86;33.50
75985;DHT22;65033;44.660;37.758;2022-11-30T05:47:22;27.89;33.47
75985;DHT22;65033;44.660;37.758;2022-11-30T05:48:25;27.90;33.44
75985;DHT22;65033;44.660;37.758;2022-11-30T05:49:28;27.93;33.47
75985;DHT22;65033;44.660;37.758;2022-11-30T05:50:32;27.96;33.41
75985;DHT22;65033;44.660;37.758;2022-11-30T05:51:35;27.98;33.36
75985;DHT22;65033;44.660;37.758;2022-11-30T05:52:38;28.01;33.22
75985;DHT22;65033;44.660;37.758;2022-11-30T05:53:44;28.03;32.93
75985;DHT22;65033;44.660;37.758;2022-11-30T05:54:47;28.08;32.63
75985;DHT22;65033;44.660;37.758;2022-11-30T05:55:51;28.11;32.36
75985;DHT22;65033;44.660;37.758;2022-11-30T05:56:54;28.13;32.35
75985;DHT22;65033;44.660;37.758;2022-11-30T05:57:57;28.16;32.31
75985;DHT22;65033;44.660;37.758;2022-11-30T05:59:01;28.18;32.53
75985;DHT22;65033;44.660;37.758;2022-11-30T06:00:06;28.20;32.63
75985;DHT22;65033;44.660;37.758;2022-11-30T06:01:17;28.25;32.61
75985;DHT22;65033;44.660;37.758;2022-11-30T06:02:22;28.27;32.64
75985;DHT22;65033;44.660;37.758;2022-11-30T06:03:28;28.30;32.57
75985;DHT22;65033;44.660;37.758;2022-11-30T06:04:32;28.32;32.51
75985;DHT22;65033;44.660;37.758;2022-11-30T06:05:36;28.34;32.50
75985;DHT22;65033;44.660;37.758;2022-11-30T06:06:39;28.37;32.44
75985;DHT22;65033;44.660;37.758;2022-11-30T06:07:42;28.39;32.38
75985;DHT22;65033;44.660;37.758;2022-11-30T06:08:48;28.42;32.35
75985;DHT22;65033;44.660;37.758;2022-11-30T06:09:51;28.45;32.36
75985;DHT22;65033;44.660;37.758;2022-11-30T06:10:59;28.46;32.21
75985;DHT22;65033;44.660;37.758;2022-11-30T06:12:02;28.49;32.18
75985;DHT22;65033;44.660;37.758;2022-11-30T06:13:06;28.52;32.22
75985;DHT22;65033;44.660;37.758;2022-11-30T06:14:09;28.55;32.17
75985;DHT22;65033;44.660;37.758;2022-11-30T06:15:13;28.55;32.12
75985;DHT22;65033;44.660;37.758;2022-11-30T06:16:16;28.59;32.16
75985;DHT22;65033;44.660;37.758;2022-11-30T06:17:20;28.61;32.04
75985;DHT22;65033;44.660;37.758;2022-11-30T06:18:23;28.63;31.96
75985;DHT22;65033;44.660;37.758;2022-11-30T06:19:26;28.65;31.94
75985;DHT22;65033;44.660;37.758;2022-11-30T06:20:30;28.68;31.90
75985;DHT22;65033;44.660;37.758;2022-11-30T06:21:33;28.71;31.94
75985;DHT22;65033;44.660;37.758;2022-11-30T06:22:37;28.72;31.81
75985;DHT22;65033;44.660;37.758;2022-11-30T06:23:40;28.74;31.80
75985;DHT22;65033;44.660;37.758;2022-11-30T06:24:45;28.76;31.72
75985;DHT22;65033;44.660;37.758;2022-11-30T06:25:48;28.78;31.78
75985;DHT22;65033;44.660;37.758;2022-11-30T06:26:51;28.80;31.64
75985;DHT22;65033;44.660;37.758;2022-11-30T06:27:55;28.83;31.70
75985;DHT22;65033;44.660;37.758;2022-11-30T06:28:58;28.83;31.64
75985;DHT22;65033;44.660;37.758;2022-11-30T06:30:01;28.85;31.55
75985;DHT22;65033;44.660;37.758;2022-11-30T06:31:06;28.87;31.56
75985;DHT22;65033;44.660;37.758;2022-11-30T06:32:09;28.89;31.59
75985;DHT22;65033;44.660;37.758;2022-11-30T06:33:12;28.91;31.52
75985;DHT22;65033;44.660;37.758;2022-11-30T06:34:16;28.93;31.51
75985;DHT22;65033;44.660;37.758;2022-11-30T06:35:19;28.94;31.57
75985;DHT22;65033;44.660;37.758;2022-11-30T06:36:23;28.97;31.46
75985;DHT22;65033;44.660;37.758;2022-11-30T06:37:26;28.99;31.45
75985;DHT22;65033;44.660;37.758;2022-11-30T06:38:30;29.00;31.41
75985;DHT22;65033;44.660;37.758;2022-11-30T06:39:34;29.01;31.38
75985;DHT22;65033;44.660;37.758;2022-11-30T06:41:04;29.03;31.36
75985;DHT22;65033;44.660;37.758;2022-11-30T06:42:07;29.05;31.36
75985;DHT22;65033;44.660;37.758;2022-11-30T06:43:11;29.05;31.32
75985;DHT22;65033;44.660;37.758;2022-11-30T06:44:14;29.07;31.28
75985;DHT22;65033;44.660;37.758;2022-11-30T06:45:17;29.08;31.28
75985;DHT22;65033;44.660;37.758;2022-11-30T06:46:21;29.11;31.27